createdAt,value
2023-05-22T00:00:13.700Z,7.60
2023-05-22T00:02:43.750Z,7.20
2023-05-22T00:05:13.018Z,8.13
2023-05-22T00:07:43.369Z,7.43
2023-05-22T00:10:12.208Z,7.90
2023-05-22T00:12:40.374Z,7.60
2023-05-22T00:15:09.455Z,7.77
2023-05-22T00:17:37.708Z,7.30
2023-05-22T00:20:10.611Z,7.37
2023-05-22T00:22:38.876Z,7.60
2023-05-22T00:25:09.642Z,9.63
2023-05-22T00:27:37.556Z,8.43
2023-05-22T00:30:07.373Z,8.20
2023-05-22T00:32:35.794Z,8.97
2023-05-22T00:35:04.072Z,8.43
2023-05-22T00:37:31.943Z,7.90
2023-05-22T00:39:59.896Z,7.87
2023-05-22T00:42:29.639Z,8.47
2023-05-22T00:44:57.732Z,7.70
2023-05-22T00:47:27.141Z,7.73
2023-05-22T00:49:55.624Z,7.50
2023-05-22T00:52:23.669Z,7.70
2023-05-22T00:54:53.796Z,9.20
2023-05-22T00:57:22.797Z,7.50
2023-05-22T00:59:52.209Z,8.77
2023-05-22T01:02:21.228Z,8.57
2023-05-22T01:04:50.301Z,7.83
2023-05-22T01:07:18.838Z,9.30
2023-05-22T01:09:46.758Z,8.17
2023-05-22T01:12:22.702Z,8.33
2023-05-22T01:15:08.646Z,8.67
2023-05-22T01:17:47.989Z,8.93
2023-05-22T01:20:25.618Z,8.00
2023-05-22T01:23:44.462Z,7.43
2023-05-22T01:26:32.877Z,8.07
2023-05-22T01:29:26.052Z,7.97
2023-05-22T01:31:56.481Z,8.70
2023-05-22T01:34:25.062Z,8.17
2023-05-22T01:36:54.408Z,8.60
2023-05-22T01:39:25.493Z,9.03
2023-05-22T01:41:53.834Z,8.30
2023-05-22T01:44:21.758Z,8.23
2023-05-22T01:46:49.857Z,8.53
2023-05-22T01:49:19.302Z,8.10
2023-05-22T01:51:54.078Z,8.80
2023-05-22T01:54:29.181Z,8.67
2023-05-22T01:57:04.836Z,8.97
2023-05-22T01:59:41.350Z,9.23
2023-05-22T02:02:12.509Z,8.93
2023-05-22T02:04:49.832Z,7.93
2023-05-22T02:07:20.668Z,8.80
2023-05-22T02:09:49.595Z,6.83
2023-05-22T02:12:17.863Z,7.63
2023-05-22T02:14:46.328Z,8.47
2023-05-22T02:17:14.270Z,8.03
2023-05-22T02:19:43.688Z,8.40
2023-05-22T02:22:13.772Z,7.80
2023-05-22T02:24:43.939Z,8.20
2023-05-22T02:27:11.948Z,8.37
2023-05-22T02:29:39.967Z,8.20
2023-05-22T02:32:08.488Z,8.33
2023-05-22T02:34:37.846Z,8.47
2023-05-22T02:37:07.264Z,7.93
2023-05-22T02:39:35.155Z,7.73
2023-05-22T02:42:03.562Z,7.00
2023-05-22T02:44:31.506Z,9.00
2023-05-22T02:46:59.771Z,9.20
2023-05-22T02:49:27.927Z,8.60
2023-05-22T02:51:55.896Z,8.17
2023-05-22T02:54:25.214Z,7.13
2023-05-22T02:56:53.345Z,7.73
2023-05-22T02:59:21.254Z,7.17
2023-05-22T03:01:49.199Z,8.83
2023-05-22T03:04:17.175Z,8.83
2023-05-22T03:06:46.330Z,7.43
2023-05-22T03:09:14.321Z,9.80
2023-05-22T03:11:43.761Z,9.70
2023-05-22T03:14:11.724Z,8.80
2023-05-22T03:16:39.717Z,8.90
2023-05-22T03:19:11.360Z,8.17
2023-05-22T03:21:39.779Z,8.60
2023-05-22T03:24:08.885Z,8.90
2023-05-22T03:26:36.833Z,8.03
2023-05-22T03:29:06.271Z,8.60
2023-05-22T03:31:34.803Z,9.27
2023-05-22T03:34:03.347Z,8.23
2023-05-22T03:36:34.284Z,8.20
2023-05-22T03:39:02.195Z,8.83
2023-05-22T03:41:30.117Z,8.10
2023-05-22T03:43:59.179Z,8.20
2023-05-22T03:46:28.760Z,8.10
2023-05-22T03:48:56.644Z,8.40
2023-05-22T03:51:24.527Z,7.80
2023-05-22T03:53:52.481Z,7.90
2023-05-22T03:56:21.240Z,7.63
2023-05-22T03:58:50.177Z,9.13
2023-05-22T04:01:18.484Z,10.07
2023-05-22T04:03:47.759Z,9.13
2023-05-22T04:06:15.776Z,10.53
2023-05-22T04:08:43.737Z,11.07
2023-05-22T04:11:15.376Z,10.00
2023-05-22T04:13:43.558Z,10.00
2023-05-22T04:16:11.563Z,10.93
2023-05-22T04:18:39.626Z,10.90
2023-05-22T04:21:09.969Z,10.40
2023-05-22T04:23:38.610Z,10.17
2023-05-22T04:26:08.801Z,9.83
2023-05-22T04:28:37.226Z,10.10
2023-05-22T04:31:07.344Z,10.47
2023-05-22T04:33:36.488Z,10.43
2023-05-22T04:36:05.024Z,9.90
2023-05-22T04:38:37.144Z,10.37
2023-05-22T04:41:05.342Z,11.10
2023-05-22T04:43:33.773Z,10.13
2023-05-22T04:46:01.937Z,9.17
2023-05-22T04:48:30.362Z,10.23
2023-05-22T04:50:58.460Z,10.17
2023-05-22T04:53:27.454Z,9.40
2023-05-22T04:55:56.834Z,10.20
2023-05-22T04:58:27.313Z,9.50
2023-05-22T05:00:57.789Z,9.77
2023-05-22T05:03:26.636Z,10.13
2023-05-22T05:05:54.546Z,9.10
2023-05-22T05:08:22.596Z,11.00
2023-05-22T05:10:50.544Z,9.97
2023-05-22T05:13:19.774Z,10.53
2023-05-22T05:15:47.706Z,10.80
2023-05-22T05:18:16.205Z,10.77
2023-05-22T05:20:44.169Z,10.83
2023-05-22T05:23:12.099Z,10.73
2023-05-22T05:25:39.993Z,10.17
2023-05-22T05:28:11.140Z,11.37
2023-05-22T05:30:41.143Z,10.90
2023-05-22T05:33:09.413Z,10.20
2023-05-22T05:35:37.518Z,10.57
2023-05-22T05:38:05.473Z,11.20
2023-05-22T05:40:33.332Z,10.60
2023-05-22T05:43:01.241Z,10.63
2023-05-22T05:45:29.599Z,11.67
2023-05-22T05:47:58.935Z,10.77
2023-05-22T05:50:27.142Z,12.33
2023-05-22T05:52:55.046Z,13.10
2023-05-22T05:55:23.057Z,12.60
2023-05-22T05:57:51.364Z,11.10
2023-05-22T06:00:20.051Z,11.10
2023-05-22T06:02:50.545Z,12.20
2023-05-22T06:05:20.192Z,11.73
2023-05-22T06:07:48.270Z,11.90
2023-05-22T06:10:16.633Z,12.47
2023-05-22T06:12:45.036Z,11.60
2023-05-22T06:15:13.691Z,12.13
2023-05-22T06:17:41.967Z,10.67
2023-05-22T06:20:10.546Z,12.20
2023-05-22T06:22:39.950Z,12.90
2023-05-22T06:25:09.854Z,11.33
2023-05-22T06:27:37.836Z,11.50
2023-05-22T06:30:07.009Z,12.70
2023-05-22T06:32:35.104Z,11.77
2023-05-22T06:35:03.195Z,13.30
2023-05-22T06:37:33.177Z,11.67
2023-05-22T06:40:02.461Z,12.27
2023-05-22T06:42:30.489Z,11.57
2023-05-22T06:44:58.376Z,13.03
2023-05-22T06:47:26.359Z,12.43
2023-05-22T06:49:54.280Z,11.07
2023-05-22T06:52:22.180Z,12.43
2023-05-22T06:54:50.117Z,11.40
2023-05-22T06:57:21.644Z,12.70
2023-05-22T06:59:49.658Z,12.87
2023-05-22T07:02:19.915Z,11.20
2023-05-22T07:04:49.626Z,12.50
2023-05-22T07:07:17.568Z,11.30
2023-05-22T07:09:45.697Z,10.93
2023-05-22T07:12:13.698Z,11.17
2023-05-22T07:14:43.339Z,10.50
2023-05-22T07:17:11.508Z,9.73
2023-05-22T07:19:39.534Z,10.53
2023-05-22T07:22:07.681Z,10.17
2023-05-22T07:24:35.675Z,10.57
2023-05-22T07:27:04.347Z,11.00
2023-05-22T07:29:32.469Z,10.90
2023-05-22T07:32:04.534Z,10.70
2023-05-22T07:34:34.502Z,10.40
2023-05-22T07:37:08.211Z,10.27
2023-05-22T07:39:36.326Z,10.57
2023-05-22T07:42:04.951Z,10.30
2023-05-22T07:44:34.529Z,10.90
2023-05-22T07:47:03.803Z,10.07
2023-05-22T07:49:31.737Z,10.90
2023-05-22T07:51:59.750Z,11.50
2023-05-22T07:54:27.809Z,11.03
2023-05-22T07:56:56.146Z,10.40
2023-05-22T07:59:25.332Z,10.40
2023-05-22T08:01:53.593Z,10.40
2023-05-22T08:04:23.693Z,11.03
2023-05-22T08:06:51.814Z,11.20
2023-05-22T08:09:21.577Z,10.33
2023-05-22T08:11:49.693Z,10.67
2023-05-22T08:14:17.747Z,10.40
2023-05-22T08:16:45.815Z,9.00
2023-05-22T08:19:13.879Z,9.37
2023-05-22T08:21:43.193Z,10.60
2023-05-22T08:24:11.324Z,11.17
2023-05-22T08:26:40.378Z,10.13
2023-05-22T08:29:08.370Z,10.77
2023-05-22T08:31:36.322Z,10.67
2023-05-22T08:34:04.920Z,9.70
2023-05-22T08:36:33.998Z,10.07
2023-05-22T08:39:03.844Z,9.70
2023-05-22T08:41:31.824Z,9.70
2023-05-22T08:44:00.040Z,10.60
2023-05-22T08:46:29.883Z,8.60
2023-05-22T08:48:58.732Z,9.30
2023-05-22T08:51:31.308Z,10.10
2023-05-22T08:54:01.731Z,8.67
2023-05-22T08:56:35.145Z,8.63
2023-05-22T08:59:04.218Z,9.10
2023-05-22T09:01:33.836Z,10.50
2023-05-22T09:04:03.191Z,10.00
2023-05-22T09:06:31.751Z,10.70
2023-05-22T09:09:01.585Z,9.07
2023-05-22T09:11:30.875Z,9.20
2023-05-22T09:14:09.266Z,9.27
2023-05-22T09:16:46.161Z,9.40
2023-05-22T09:19:15.267Z,9.00
2023-05-22T09:21:44.296Z,9.67
2023-05-22T09:24:12.531Z,8.27
2023-05-22T09:26:42.139Z,7.60
2023-05-22T09:29:10.357Z,8.50
2023-05-22T09:31:45.217Z,8.77
2023-05-22T09:34:15.576Z,8.20
2023-05-22T09:36:43.694Z,10.20
2023-05-22T09:39:11.745Z,9.13
2023-05-22T09:41:42.371Z,10.13
2023-05-22T09:44:14.844Z,10.57
2023-05-22T09:46:43.517Z,9.60
2023-05-22T09:49:15.080Z,9.73
2023-05-22T09:51:47.785Z,11.27
2023-05-22T09:54:17.766Z,11.23
2023-05-22T09:56:50.004Z,10.20
2023-05-22T09:59:22.248Z,10.50
2023-05-22T10:01:51.525Z,10.13
2023-05-22T10:04:20.321Z,11.57
2023-05-22T10:06:52.676Z,9.50
2023-05-22T10:09:24.508Z,10.93
2023-05-22T10:11:56.035Z,10.30
2023-05-22T10:14:25.463Z,10.23
2023-05-22T10:16:56.829Z,10.37
2023-05-22T10:19:27.868Z,11.63
2023-05-22T10:21:59.102Z,10.23
2023-05-22T10:24:27.055Z,10.70
2023-05-22T10:26:56.428Z,9.37
2023-05-22T10:29:30.474Z,10.50
2023-05-22T10:32:05.187Z,10.27
2023-05-22T10:34:43.365Z,10.80
2023-05-22T10:37:23.325Z,11.00
2023-05-22T10:40:02.193Z,11.40
2023-05-22T10:42:32.774Z,12.13
2023-05-22T10:45:02.651Z,11.63
2023-05-22T10:47:30.721Z,9.63
2023-05-22T10:50:08.126Z,10.57
2023-05-22T10:52:36.404Z,9.50
2023-05-22T10:55:08.132Z,12.00
2023-05-22T10:57:39.774Z,11.23
2023-05-22T11:00:10.521Z,11.37
2023-05-22T11:02:41.341Z,11.53
2023-05-22T11:05:35.205Z,11.80
2023-05-22T11:08:38.413Z,11.30
2023-05-22T11:11:20.667Z,10.23
2023-05-22T11:13:54.168Z,11.80
2023-05-22T11:16:22.556Z,10.23
2023-05-22T11:18:50.827Z,9.77
2023-05-22T11:21:18.732Z,10.87
2023-05-22T11:23:46.777Z,9.80
2023-05-22T11:26:22.527Z,11.23
2023-05-22T11:28:51.886Z,9.00
2023-05-22T11:31:23.941Z,10.37
2023-05-22T11:33:51.887Z,9.80
2023-05-22T11:36:20.008Z,10.20
2023-05-22T11:38:48.036Z,9.43
2023-05-22T11:41:17.117Z,10.03
2023-05-22T11:43:45.336Z,9.93
2023-05-22T11:46:14.105Z,10.00
2023-05-22T11:48:43.888Z,9.23
2023-05-22T11:51:11.980Z,9.93
2023-05-22T11:53:40.254Z,9.23
2023-05-22T11:56:08.796Z,9.07
2023-05-22T11:58:36.687Z,9.10
2023-05-22T12:01:06.108Z,9.23
2023-05-22T12:03:34.275Z,8.73
2023-05-22T12:06:04.115Z,8.77
2023-05-22T12:08:32.349Z,8.67
2023-05-22T12:11:00.304Z,9.47
2023-05-22T12:13:29.818Z,10.33
2023-05-22T12:16:01.370Z,8.13
2023-05-22T12:18:36.292Z,8.70
2023-05-22T12:21:08.989Z,7.60
2023-05-22T12:23:36.901Z,7.80
2023-05-22T12:26:10.326Z,5.60
2023-05-22T12:28:40.006Z,7.83
2023-05-22T12:31:08.008Z,7.17
2023-05-22T12:33:36.003Z,7.40
2023-05-22T12:36:10.328Z,6.80
2023-05-22T12:38:39.759Z,7.43
2023-05-22T12:41:08.265Z,6.83
2023-05-22T12:43:36.268Z,7.10
2023-05-22T12:46:04.308Z,7.40
2023-05-22T12:48:32.246Z,7.67
2023-05-22T12:51:00.208Z,8.20
2023-05-22T12:53:29.528Z,7.60
2023-05-22T12:55:57.463Z,6.73
2023-05-22T12:58:25.569Z,7.13
2023-05-22T13:00:53.604Z,7.50
2023-05-22T13:03:21.586Z,8.33
2023-05-22T13:05:49.518Z,7.60
2023-05-22T13:08:17.458Z,8.23
2023-05-22T13:10:46.973Z,7.93
2023-05-22T13:13:15.119Z,7.80
2023-05-22T13:15:43.121Z,7.93
2023-05-22T13:18:11.831Z,8.10
2023-05-22T13:20:39.815Z,7.63
2023-05-22T13:23:08.436Z,6.97
2023-05-22T13:25:36.391Z,7.27
2023-05-22T13:28:05.725Z,8.20
2023-05-22T13:30:33.709Z,7.73
2023-05-22T13:33:01.781Z,7.40
2023-05-22T13:35:29.926Z,7.27
2023-05-22T13:37:57.936Z,8.77
2023-05-22T13:40:25.848Z,8.00
2023-05-22T13:42:54.040Z,7.50
2023-05-22T13:45:23.387Z,8.83
2023-05-22T13:47:51.348Z,8.50
2023-05-22T13:50:19.930Z,8.37
2023-05-22T13:52:47.998Z,8.40
2023-05-22T13:55:16.054Z,7.73
2023-05-22T13:57:43.989Z,7.50
2023-05-22T14:00:13.132Z,7.10
2023-05-22T14:02:42.506Z,7.40
2023-05-22T14:05:11.079Z,5.53
2023-05-22T14:07:39.009Z,5.20
2023-05-22T14:10:08.015Z,5.17
2023-05-22T14:12:36.057Z,5.17
2023-05-22T14:15:04.140Z,5.83
2023-05-22T14:17:32.087Z,5.77
2023-05-22T14:20:01.435Z,5.60
2023-05-22T14:22:29.364Z,6.17
2023-05-22T14:24:57.360Z,6.70
2023-05-22T14:27:25.292Z,5.37
2023-05-22T14:29:53.369Z,5.80
2023-05-22T14:32:21.521Z,5.97
2023-05-22T14:34:49.465Z,6.20
2023-05-22T14:37:18.993Z,7.57
2023-05-22T14:39:49.003Z,6.30
2023-05-22T14:42:17.005Z,6.03
2023-05-22T14:44:44.930Z,6.80
2023-05-22T14:47:13.124Z,8.70
2023-05-22T14:49:41.077Z,7.90
2023-05-22T14:52:08.972Z,7.10
2023-05-22T14:54:38.297Z,7.53
2023-05-22T14:57:06.554Z,8.60
2023-05-22T14:59:34.958Z,8.90
2023-05-22T15:02:03.037Z,8.37
2023-05-22T15:04:31.224Z,10.03
2023-05-22T15:06:59.394Z,7.80
2023-05-22T15:09:27.383Z,8.57
2023-05-22T15:11:56.672Z,7.40
2023-05-22T15:14:24.559Z,7.80
2023-05-22T15:16:52.621Z,9.87
2023-05-22T15:19:20.600Z,8.77
2023-05-22T15:21:48.489Z,8.43
2023-05-22T15:24:16.690Z,7.27
2023-05-22T15:26:44.757Z,7.17
2023-05-22T15:29:14.044Z,7.13
2023-05-22T15:31:41.994Z,7.90
2023-05-22T15:34:09.957Z,8.20
2023-05-22T15:36:37.857Z,8.10
2023-05-22T15:39:05.749Z,7.03
2023-05-22T15:41:33.716Z,6.67
2023-05-22T15:44:01.726Z,6.73
2023-05-22T15:46:31.299Z,7.10
2023-05-22T15:48:59.218Z,6.50
2023-05-22T15:51:27.133Z,6.70
2023-05-22T15:53:55.117Z,6.13
2023-05-22T15:56:23.402Z,6.90
2023-05-22T15:58:51.359Z,6.00
2023-05-22T16:01:19.332Z,6.13
2023-05-22T16:03:48.776Z,5.33
2023-05-22T16:06:16.850Z,6.30
2023-05-22T16:08:47.539Z,5.77
2023-05-22T16:11:16.001Z,5.30
2023-05-22T16:13:44.024Z,4.50
2023-05-22T16:16:11.925Z,4.10
2023-05-22T16:18:39.872Z,3.53
2023-05-22T16:21:09.338Z,3.63
2023-05-22T16:23:37.285Z,3.97
2023-05-22T16:26:05.505Z,3.77
2023-05-22T16:28:33.462Z,4.30
2023-05-22T16:31:01.449Z,3.60
2023-05-22T16:33:29.430Z,3.63
2023-05-22T16:35:57.344Z,4.07
2023-05-22T16:38:26.834Z,3.80
2023-05-22T16:40:55.451Z,4.60
2023-05-22T16:43:23.444Z,4.07
2023-05-22T16:45:51.795Z,4.30
2023-05-22T16:48:19.942Z,4.43
2023-05-22T16:50:47.855Z,4.17
2023-05-22T16:53:17.374Z,4.47
2023-05-22T16:55:46.937Z,3.47
2023-05-22T16:58:14.850Z,4.93
2023-05-22T17:00:43.227Z,5.00
2023-05-22T17:03:11.975Z,4.97
2023-05-22T17:05:40.383Z,5.40
2023-05-22T17:08:08.710Z,5.03
2023-05-22T17:10:36.743Z,5.10
2023-05-22T17:13:06.077Z,4.40
2023-05-22T17:15:34.150Z,4.33
2023-05-22T17:18:02.201Z,4.80
2023-05-22T17:20:32.860Z,5.60
2023-05-22T17:23:00.927Z,4.80
2023-05-22T17:25:28.864Z,5.87
2023-05-22T17:27:56.853Z,6.03
2023-05-22T17:30:26.258Z,6.10
2023-05-22T17:32:56.925Z,5.63
2023-05-22T17:35:25.904Z,5.00
2023-05-22T17:37:53.818Z,4.60
2023-05-22T17:40:29.561Z,6.60
2023-05-22T17:43:04.526Z,8.10
2023-05-22T17:45:33.785Z,6.70
2023-05-22T17:48:01.747Z,6.03
2023-05-22T17:50:29.707Z,6.37
2023-05-22T17:52:57.587Z,7.10
2023-05-22T17:55:25.486Z,5.67
2023-05-22T17:57:53.547Z,6.30
2023-05-22T18:00:21.708Z,5.80
2023-05-22T18:02:51.542Z,6.03
2023-05-22T18:05:19.535Z,5.90
2023-05-22T18:07:47.395Z,6.30
2023-05-22T18:10:15.378Z,5.80
2023-05-22T18:12:43.265Z,6.00
2023-05-22T18:15:12.559Z,6.37
2023-05-22T18:17:41.264Z,5.40
2023-05-22T18:20:12.615Z,6.73
2023-05-22T18:22:40.899Z,6.40
2023-05-22T18:25:10.681Z,5.70
2023-05-22T18:27:38.724Z,6.20
2023-05-22T18:30:07.889Z,6.80
2023-05-22T18:32:36.820Z,5.50
2023-05-22T18:35:05.755Z,6.53
2023-05-22T18:37:35.087Z,7.27
2023-05-22T18:40:06.359Z,6.60
2023-05-22T18:42:34.625Z,6.90
2023-05-22T18:45:02.721Z,6.13
2023-05-22T18:47:30.721Z,5.60
2023-05-22T18:49:58.746Z,6.53
2023-05-22T18:52:26.737Z,7.03
2023-05-22T18:54:56.074Z,7.63
2023-05-22T18:57:24.122Z,8.40
2023-05-22T18:59:52.178Z,9.50
2023-05-22T19:02:21.833Z,9.33
2023-05-22T19:04:50.951Z,10.87
2023-05-22T19:07:21.000Z,9.63
2023-05-22T19:09:49.653Z,9.20
2023-05-22T19:12:19.154Z,10.20
2023-05-22T19:14:48.318Z,10.80
2023-05-22T19:17:16.395Z,10.73
2023-05-22T19:19:44.417Z,10.40
2023-05-22T19:22:12.296Z,10.87
2023-05-22T19:24:40.347Z,10.70
2023-05-22T19:27:08.196Z,12.80
2023-05-22T19:29:37.463Z,8.70
2023-05-22T19:32:06.040Z,12.53
2023-05-22T19:34:33.957Z,11.90
2023-05-22T19:37:01.932Z,13.33
2023-05-22T19:39:29.836Z,13.53
2023-05-22T19:41:57.845Z,13.07
2023-05-22T19:44:25.827Z,12.13
2023-05-22T19:46:58.609Z,12.60
2023-05-22T19:49:26.594Z,12.80
2023-05-22T19:51:56.113Z,13.17
2023-05-22T19:54:24.200Z,12.17
2023-05-22T19:56:52.277Z,13.20
2023-05-22T19:59:20.616Z,14.23
2023-05-22T20:01:50.767Z,13.30
2023-05-22T20:04:22.474Z,13.57
2023-05-22T20:06:50.878Z,13.57
2023-05-22T20:09:18.898Z,13.90
2023-05-22T20:11:46.935Z,14.07
2023-05-22T20:14:15.036Z,12.43
2023-05-22T20:16:43.181Z,15.10
2023-05-22T20:19:14.216Z,13.70
2023-05-22T20:21:43.648Z,13.30
2023-05-22T20:24:17.396Z,13.00
2023-05-22T20:26:45.853Z,13.60
2023-05-22T20:29:14.410Z,14.77
2023-05-22T20:31:42.400Z,14.87
2023-05-22T20:34:10.486Z,14.73
2023-05-22T20:36:39.803Z,15.43
2023-05-22T20:39:10.896Z,14.70
2023-05-22T20:41:39.456Z,14.87
2023-05-22T20:44:07.739Z,15.10
2023-05-22T20:46:38.044Z,15.40
2023-05-22T20:49:06.157Z,14.57
2023-05-22T20:51:34.326Z,14.80
2023-05-22T20:54:02.338Z,14.80
2023-05-22T20:56:31.958Z,15.87
2023-05-22T20:58:59.896Z,14.73
2023-05-22T21:01:27.812Z,15.10
2023-05-22T21:03:56.893Z,15.27
2023-05-22T21:06:24.868Z,17.17
2023-05-22T21:08:54.262Z,16.57
2023-05-22T21:11:22.540Z,16.70
2023-05-22T21:13:51.802Z,16.70
2023-05-22T21:16:19.836Z,17.77
2023-05-22T21:18:47.843Z,16.03
2023-05-22T21:21:16.599Z,19.33
2023-05-22T21:23:44.725Z,18.90
2023-05-22T21:26:12.639Z,20.37
2023-05-22T21:28:40.752Z,19.10
2023-05-22T21:31:10.175Z,19.67
2023-05-22T21:33:38.060Z,20.97
2023-05-22T21:36:06.340Z,19.33
2023-05-22T21:38:34.269Z,21.30
2023-05-22T21:41:02.138Z,20.50
2023-05-22T21:43:30.051Z,23.20
2023-05-22T21:45:57.992Z,18.60
2023-05-22T21:48:27.596Z,20.90
2023-05-22T21:50:55.816Z,20.07
2023-05-22T21:53:24.104Z,20.20
2023-05-22T21:55:52.408Z,20.63
2023-05-22T21:58:20.390Z,21.40
2023-05-22T22:00:48.263Z,21.20
2023-05-22T22:03:16.352Z,20.50
2023-05-22T22:05:45.692Z,19.83
2023-05-22T22:08:13.622Z,22.13
2023-05-22T22:10:41.712Z,21.77
2023-05-22T22:13:09.863Z,20.40
2023-05-22T22:15:37.900Z,22.77
2023-05-22T22:18:06.274Z,20.33
2023-05-22T22:20:44.407Z,21.83
2023-05-22T22:23:15.160Z,23.50
2023-05-22T22:25:43.487Z,24.33
2023-05-22T22:28:11.400Z,22.97
2023-05-22T22:30:40.614Z,24.33
2023-05-22T22:33:08.815Z,23.37
2023-05-22T22:35:36.853Z,24.87
2023-05-22T22:38:04.786Z,24.50
2023-05-22T22:40:34.080Z,24.50
2023-05-22T22:43:01.985Z,27.07
2023-05-22T22:45:30.160Z,24.50
2023-05-22T22:47:58.256Z,23.67
2023-05-22T22:50:26.310Z,22.43
2023-05-22T22:52:54.267Z,24.87
2023-05-22T22:55:22.570Z,24.80
2023-05-22T22:57:51.985Z,23.03
2023-05-22T23:00:21.416Z,24.87
2023-05-22T23:02:49.436Z,23.53
2023-05-22T23:05:20.191Z,25.83
2023-05-22T23:07:49.028Z,25.57
2023-05-22T23:10:17.539Z,24.67
2023-05-22T23:12:45.582Z,23.87
2023-05-22T23:15:15.875Z,22.83
2023-05-22T23:17:43.874Z,22.70
2023-05-22T23:20:12.532Z,24.17
2023-05-22T23:22:40.595Z,21.53
2023-05-22T23:25:09.275Z,23.53
2023-05-22T23:27:37.512Z,22.57
2023-05-22T23:30:06.324Z,22.27
2023-05-22T23:32:35.693Z,21.30
2023-05-22T23:35:05.065Z,21.53
2023-05-22T23:37:32.991Z,20.90
2023-05-22T23:40:00.888Z,21.33
2023-05-22T23:42:29.174Z,22.47
2023-05-22T23:44:57.070Z,21.30
2023-05-22T23:47:25.034Z,21.37
2023-05-22T23:49:56.638Z,21.53
2023-05-22T23:52:24.616Z,22.47
2023-05-22T23:54:52.525Z,19.67
2023-05-22T23:57:20.471Z,23.27
2023-05-22T23:59:48.428Z,20.97
